Current | Forecast
Updated: 12:00 AM +10 on June 30, 2017
Observed at Khabarovsk, China
Temperature 68°F
Humidity 100%
Dew Point 68°F
Wind Variable at 2 mph
Pressure 29.56 in (Steady)
Conditions Light Rain Showers
Visibility 6.2 miles
UV 0 out of 16
Clouds (FEW) : 1000 ft
Mostly Cloudy (BKN) : 2500 ft
Yesterday's Maximum 77°F
Yesterday's Minimum 64°F approx.
Yesterday's Cooling Degree Days 6 approx.
Sunrise3:06 AM CST
Sunset7:08 PM CST
Moon Rise9:02 AM CST
Moon Set10:27 PM CST
Moon PhaseMoon Phase
Waxing Crescent
Raw METARMETAR UHHH 291400Z VRB01MPS 9999 -SHRA FEW010 BKN025CB 20/20 Q1001 R23L/290145 NOSIG RMK QFE744/0992


Monday
. High: 66° F.
Tuesday
. High: 51° F.
Wednesday
. High: 59° F.
Thursday
. High: 51° F.
Friday
. High: 50° F.
Saturday
. High: 50° F.
Sunday
. High: 53° F.
Monday
. High: 66° F.

Units: English | Metric

Find the Weather for any City, State or Zipcode, or Country:

U.S. State List | Severe Weather | Tropical Storms | Ski Conditions
United States | Canada | Central America | South America | Asia | Europe | Australia | Africa | Islands

Weather Underground

© Copyright 2017
The Weather Company, LLC